Time;durP1;ratioP1;P1;durP2;ratioP2;P2;SDS_P1;SDS_P2;PMS_P1;PMS_P2;Temp;Humidity;BMP_temperature;BMP_pressure;BME280_temperature;BME280_humidity;BME280_pressure;Samples;Min_cycle;Max_cycle;Signal;HPM_P1;HPM_P2
2021/04/27 00:01:52;;;;;;;22.90;13.50;;;;;;;12.80;96.87;97147.56;5058903;28;45384;-76
2021/04/27 00:04:18;;;;;;;21.65;13.57;;;;;;;12.90;96.96;97154.41;5059296;28;45422;-75
2021/04/27 00:06:43;;;;;;;19.30;13.02;;;;;;;12.86;96.76;97147.81;5072486;28;46221;-76
2021/04/27 00:09:09;;;;;;;20.77;12.80;;;;;;;12.91;96.25;97142.72;5059139;28;45357;-76
2021/04/27 00:11:35;;;;;;;20.35;13.20;;;;;;;12.87;97.06;97138.78;5068686;28;45441;-76
2021/04/27 00:14:01;;;;;;;22.73;13.02;;;;;;;12.78;98.17;97146.94;5083297;27;45386;-76
2021/04/27 00:16:27;;;;;;;16.75;11.60;;;;;;;12.84;97.09;97140.84;5063383;28;46057;-76
2021/04/27 00:18:52;;;;;;;20.67;11.80;;;;;;;12.91;97.77;97140.84;5059092;28;45287;-76
2021/04/27 00:21:18;;;;;;;15.50;11.55;;;;;;;12.87;97.35;97136.94;5058984;28;45159;-76
2021/04/27 00:23:44;;;;;;;21.30;12.63;;;;;;;12.87;97.60;97134.25;5059070;28;45232;-76
2021/04/27 00:26:09;;;;;;;19.25;10.63;;;;;;;12.84;96.26;97135.50;5057384;28;47107;-76
2021/04/27 00:28:34;;;;;;;15.43;10.57;;;;;;;12.61;97.06;97122.44;5070125;28;45293;-77
2021/04/27 00:31:00;;;;;;;17.17;11.60;;;;;;;12.64;96.95;97118.53;5076995;28;45322;-77
2021/04/27 00:33:25;;;;;;;16.65;9.85;;;;;;;12.79;96.13;97127.22;5068783;28;45490;-76
2021/04/27 00:35:51;;;;;;;14.75;10.35;;;;;;;12.81;97.07;97124.38;5074488;27;45291;-76
2021/04/27 00:38:16;;;;;;;18.52;11.60;;;;;;;12.57;96.99;97115.00;5069875;27;45394;-76
2021/04/27 00:40:42;;;;;;;27.83;15.98;;;;;;;12.46;97.82;97122.53;5072138;28;45348;-76
2021/04/27 00:43:07;;;;;;;20.42;12.90;;;;;;;12.31;98.53;97124.50;5058561;28;45344;-76
2021/04/27 00:45:33;;;;;;;17.02;11.43;;;;;;;12.20;99.84;97116.03;5058344;28;45533;-77
2021/04/27 00:47:58;;;;;;;15.90;9.93;;;;;;;12.21;100.00;97115.00;5058308;28;45331;-77
2021/04/27 00:50:30;;;;;;;12.77;9.68;;;;;;;12.18;100.00;97119.88;5058383;28;45272;-78
2021/04/27 00:52:56;;;;;;;14.13;9.18;;;;;;;12.15;100.00;97117.63;5058760;28;45329;-77
2021/04/27 00:55:23;;;;;;;16.40;10.02;;;;;;;12.31;100.00;97116.50;5065677;28;47871;-78
2021/04/27 00:57:48;;;;;;;17.98;10.48;;;;;;;12.29;100.00;97115.88;5069456;27;45412;-77
2021/04/27 01:00:17;;;;;;;15.25;10.38;;;;;;;12.40;99.41;97116.16;5065623;28;45420;-77
2021/04/27 01:02:44;;;;;;;15.73;9.80;;;;;;;12.40;98.88;97099.34;5068887;28;45284;-77
2021/04/27 01:05:15;;;;;;;15.20;10.23;;;;;;;12.32;99.73;97116.28;5060911;28;45237;-77
2021/04/27 01:07:51;;;;;;;17.67;10.93;;;;;;;12.36;100.00;97108.75;5067987;27;45494;-77
2021/04/27 01:10:20;;;;;;;17.27;10.85;;;;;;;12.23;100.00;97110.31;5058126;28;45306;-77
2021/04/27 01:12:54;;;;;;;23.42;11.90;;;;;;;12.43;100.00;97106.13;5061424;27;45269;-77
2021/04/27 01:15:26;;;;;;;16.00;9.98;;;;;;;12.58;98.88;97106.00;5071675;27;46359;-78
2021/04/27 01:17:53;;;;;;;15.25;8.93;;;;;;;12.68;97.63;97112.63;5057709;28;45384;-77
2021/04/27 01:20:34;;;;;;;17.60;9.70;;;;;;;12.75;97.31;97109.97;5056981;28;45345;-77
2021/04/27 01:23:02;;;;;;;12.38;8.63;;;;;;;12.69;98.00;97113.44;5057981;28;45431;-78
2021/04/27 01:25:54;;;;;;;13.35;9.20;;;;;;;12.65;98.50;97115.69;5057925;28;45404;-78
2021/04/27 01:28:23;;;;;;;11.73;7.65;;;;;;;12.72;97.24;97118.38;5056876;28;45410;-78
2021/04/27 01:30:50;;;;;;;14.05;8.95;;;;;;;12.67;98.98;97118.16;5057747;28;45256;-77
2021/04/27 01:33:18;;;;;;;13.68;8.82;;;;;;;12.71;98.59;97122.06;5057763;28;45217;-77
2021/04/27 01:35:45;;;;;;;14.45;8.30;;;;;;;12.76;97.40;97114.28;5067096;27;46102;-78
2021/04/27 01:38:12;;;;;;;12.52;8.80;;;;;;;12.71;97.93;97114.06;5069167;27;45317;-78
2021/04/27 01:40:39;;;;;;;14.05;8.68;;;;;;;12.62;98.05;97115.25;5071209;28;45414;-77
2021/04/27 01:43:05;;;;;;;13.48;8.65;;;;;;;12.57;98.50;97117.69;5073257;28;45533;-77
2021/04/27 01:45:32;;;;;;;14.98;8.35;;;;;;;12.74;96.83;97116.34;5057416;28;46252;-77
2021/04/27 01:48:00;;;;;;;11.23;7.05;;;;;;;12.80;96.79;97112.06;5057557;28;45498;-77
2021/04/27 01:50:27;;;;;;;12.30;7.60;;;;;;;12.85;96.76;97117.63;5057583;28;45270;-78
2021/04/27 01:52:53;;;;;;;11.00;7.20;;;;;;;12.57;97.05;97110.53;5057655;28;45349;-78
2021/04/27 01:55:20;;;;;;;12.82;7.00;;;;;;;12.64;96.96;97115.88;5058626;28;46093;-78
2021/04/27 01:57:47;;;;;;;11.82;6.82;;;;;;;12.46;98.45;97122.53;5075558;28;45339;-77
2021/04/27 02:00:15;;;;;;;10.65;6.65;;;;;;;12.43;98.83;97117.59;5075867;27;45254;-78
2021/04/27 02:02:48;;;;;;;10.70;7.18;;;;;;;12.35;99.32;97125.75;5058267;28;45257;-77
2021/04/27 02:05:15;;;;;;;11.98;6.80;;;;;;;12.42;98.79;97118.63;5060179;28;45936;-78
2021/04/27 02:07:41;;;;;;;11.80;6.40;;;;;;;12.46;98.51;97124.41;5067442;27;45370;-77
2021/04/27 02:10:11;;;;;;;12.05;6.50;;;;;;;12.40;98.58;97116.16;5061224;28;45295;-78
2021/04/27 02:12:40;;;;;;;13.15;6.63;;;;;;;12.42;98.83;97120.47;5065170;27;45574;-78
2021/04/27 02:15:09;;;;;;;14.40;7.68;;;;;;;12.39;98.84;97111.84;5088078;27;45499;-77
2021/04/27 02:17:41;;;;;;;13.98;7.20;;;;;;;12.49;98.08;97106.16;5073554;27;45239;-77
2021/04/27 02:20:08;;;;;;;10.35;6.97;;;;;;;12.48;97.84;97107.19;5057444;28;45244;-77
2021/04/27 02:22:34;;;;;;;13.25;6.75;;;;;;;12.39;98.70;97103.84;5064352;27;45292;-77
2021/04/27 02:25:01;;;;;;;12.43;7.00;;;;;;;12.37;98.69;97107.72;5076811;27;45321;-77
2021/04/27 02:27:30;;;;;;;11.05;6.80;;;;;;;12.38;99.73;97110.22;5063408;27;45543;-77
2021/04/27 02:29:57;;;;;;;12.75;6.60;;;;;;;12.47;99.09;97104.72;5064851;27;45285;-77
2021/04/27 02:32:23;;;;;;;9.57;6.20;;;;;;;12.40;99.10;97105.50;5056695;28;45171;-77
2021/04/27 02:34:48;;;;;;;11.65;6.60;;;;;;;12.59;98.73;97110.31;5058783;27;46019;-77
2021/04/27 02:37:16;;;;;;;10.88;6.63;;;;;;;12.67;98.11;97110.16;5071045;27;45213;-77
2021/04/27 02:39:42;;;;;;;12.23;6.55;;;;;;;12.59;97.59;97105.81;5060415;28;45553;-77
2021/04/27 02:42:08;;;;;;;12.70;8.80;;;;;;;12.72;96.98;97105.03;5060268;28;45335;-77
2021/04/27 02:44:35;;;;;;;15.90;9.93;;;;;;;12.74;97.25;97099.53;5060380;28;45417;-77
2021/04/27 02:47:01;;;;;;;14.57;9.70;;;;;;;12.74;96.88;97096.84;5059971;28;45324;-77
2021/04/27 02:49:26;;;;;;;15.63;9.27;;;;;;;12.66;96.60;97104.00;5069429;28;45493;-77
2021/04/27 02:51:52;;;;;;;11.80;7.70;;;;;;;12.71;96.71;97098.06;5060379;28;45296;-77
2021/04/27 02:54:17;;;;;;;12.40;8.93;;;;;;;12.72;96.53;97094.38;5060204;28;46308;-77
2021/04/27 02:56:42;;;;;;;14.32;9.18;;;;;;;12.67;96.49;97102.16;5066435;28;45339;-77
2021/04/27 02:59:08;;;;;;;11.05;7.60;;;;;;;12.50;97.57;97102.47;5067666;27;45263;-78
2021/04/27 03:01:33;;;;;;;14.60;9.02;;;;;;;12.42;97.79;97083.97;5059944;28;45621;-77
2021/04/27 03:03:59;;;;;;;17.42;11.20;;;;;;;12.41;98.41;97098.31;5060133;28;45252;-78
2021/04/27 03:06:25;;;;;;;15.38;7.90;;;;;;;12.39;98.42;97090.53;5066171;28;45477;-78
2021/04/27 03:08:50;;;;;;;16.30;7.70;;;;;;;12.40;98.52;97086.00;5072895;27;45321;-78
2021/04/27 03:11:16;;;;;;;13.48;8.23;;;;;;;12.51;97.73;97081.97;5073784;27;45691;-78
2021/04/27 03:13:42;;;;;;;13.18;7.65;;;;;;;12.39;98.57;97079.88;5078660;27;45552;-78
2021/04/27 03:16:08;;;;;;;16.48;8.65;;;;;;;12.52;97.75;97080.97;5073391;27;45347;-78
2021/04/27 03:18:33;;;;;;;11.50;6.43;;;;;;;12.58;97.09;97077.50;5060283;28;45373;-78
2021/04/27 03:20:59;;;;;;;11.43;5.95;;;;;;;12.52;98.24;97080.97;5059791;28;45606;-78
2021/04/27 03:23:25;;;;;;;10.90;5.90;;;;;;;12.34;98.60;97076.13;5069362;28;45485;-77
2021/04/27 03:25:50;;;;;;;13.00;6.35;;;;;;;12.52;97.02;97079.09;5073408;27;45466;-77
2021/04/27 03:28:16;;;;;;;11.30;6.22;;;;;;;12.41;97.90;97077.00;5073086;28;45283;-78
2021/04/27 03:30:42;;;;;;;12.38;7.07;;;;;;;12.27;98.67;97070.75;5060133;27;45697;-77
2021/04/27 03:33:08;;;;;;;11.63;6.20;;;;;;;12.31;98.58;97079.19;5074869;28;47007;-78
2021/04/27 03:35:34;;;;;;;12.73;6.80;;;;;;;12.35;97.81;97075.91;5067776;27;45233;-78
2021/04/27 03:37:59;;;;;;;10.18;6.90;;;;;;;12.32;98.50;97076.31;5075127;28;45254;-78
2021/04/27 03:40:25;;;;;;;10.80;6.07;;;;;;;12.33;98.52;97071.81;5059654;28;45548;-78
2021/04/27 03:42:50;;;;;;;12.90;6.60;;;;;;;12.32;98.64;97073.66;5059159;28;45458;-78
2021/04/27 03:45:20;;;;;;;12.07;7.13;;;;;;;12.30;99.17;97070.34;5059506;28;45264;-78
2021/04/27 03:47:46;;;;;;;11.70;5.93;;;;;;;12.33;98.90;97063.81;5059212;28;45395;-77
2021/04/27 03:50:16;;;;;;;11.85;6.43;;;;;;;12.31;99.02;97066.66;5058640;28;45303;-77
2021/04/27 03:52:42;;;;;;;;;;;;;;;12.36;98.47;97072.22;5059577;28;45468;-78
2021/04/27 03:55:09;;;;;;;13.27;6.95;;;;;;;12.25;99.05;97070.13;5059268;28;45301;-77
2021/04/27 03:57:34;;;;;;;16.27;7.68;;;;;;;12.28;98.71;97074.25;5072592;28;45367;-77
2021/04/27 04:00:00;;;;;;;12.05;7.43;;;;;;;12.41;98.32;97079.66;5059422;28;45355;-77
2021/04/27 04:02:25;;;;;;;26.83;13.98;;;;;;;12.45;99.01;97078.25;5058788;28;45816;-77
2021/04/27 04:04:50;;;;;;;15.25;10.70;;;;;;;12.51;98.59;97082.78;5071160;28;45400;-77
2021/04/27 04:07:16;;;;;;;29.35;16.20;;;;;;;12.54;97.94;97081.59;5073148;27;45444;-77
2021/04/27 04:09:42;;;;;;;34.00;18.60;;;;;;;12.52;98.23;97078.28;5074217;28;45473;-77
2021/04/27 04:12:08;;;;;;;17.83;12.65;;;;;;;12.52;97.47;97081.75;5058528;27;45408;-78
2021/04/27 04:14:35;;;;;;;15.30;10.48;;;;;;;12.54;98.28;97084.25;5074567;27;45332;-77
2021/04/27 04:17:00;;;;;;;14.20;9.40;;;;;;;12.60;97.00;97088.78;5058938;28;45202;-77
2021/04/27 04:19:26;;;;;;;16.15;9.18;;;;;;;12.51;98.00;97088.13;5058961;28;45159;-77
2021/04/27 04:21:51;;;;;;;13.40;8.48;;;;;;;12.35;98.31;97077.78;5060891;28;47816;-78
2021/04/27 04:24:16;;;;;;;15.45;9.50;;;;;;;12.28;99.42;97082.25;5078565;28;45228;-77
2021/04/27 04:26:42;;;;;;;14.70;9.25;;;;;;;12.30;98.70;97082.88;5059148;28;45415;-76
2021/04/27 04:29:07;;;;;;;15.55;10.52;;;;;;;12.28;99.22;97096.38;5058707;28;45482;-76
2021/04/27 04:31:33;;;;;;;20.85;14.20;;;;;;;12.34;99.02;97098.25;5058445;28;45351;-76
2021/04/27 04:33:59;;;;;;;25.38;15.98;;;;;;;12.49;99.16;97086.69;5058516;28;45355;-76
2021/04/27 04:36:25;;;;;;;20.85;14.13;;;;;;;12.61;97.77;97092.28;5074197;27;45300;-76
2021/04/27 04:38:51;;;;;;;18.13;11.98;;;;;;;12.62;97.72;97093.91;5071992;27;45520;-76
2021/04/27 04:41:16;;;;;;;23.52;13.02;;;;;;;12.69;98.48;97094.78;5072053;28;48092;-76
2021/04/27 04:43:42;;;;;;;24.98;16.80;;;;;;;12.70;98.71;97102.59;5058423;28;45263;-76
2021/04/27 04:46:07;;;;;;;31.67;18.42;;;;;;;12.66;97.99;97093.34;5058159;28;45416;-76
2021/04/27 04:48:33;;;;;;;22.58;13.30;;;;;;;12.66;97.73;97096.00;5058619;28;45151;-76
2021/04/27 04:50:58;;;;;;;18.80;11.82;;;;;;;12.68;97.17;97099.28;5059227;28;45546;-77
2021/04/27 04:53:24;;;;;;;16.98;10.88;;;;;;;12.61;98.16;97098.44;5059856;28;45586;-77
2021/04/27 04:55:49;;;;;;;19.85;11.35;;;;;;;12.70;97.28;97102.59;5074595;27;45232;-77
2021/04/27 04:58:15;;;;;;;20.35;12.55;;;;;;;12.70;97.64;97107.91;5059489;27;45258;-77
2021/04/27 05:00:40;;;;;;;22.85;13.20;;;;;;;12.70;96.94;97107.09;5060375;28;47922;-78
2021/04/27 05:03:05;;;;;;;23.52;14.35;;;;;;;12.69;99.03;97100.09;5068513;28;45327;-78
2021/04/27 05:05:31;;;;;;;23.98;15.55;;;;;;;12.65;98.23;97106.84;5055705;28;45636;-78
2021/04/27 05:08:43;;;;;;;26.00;15.43;;;;;;;12.64;98.87;97100.72;5060581;28;45638;-78
2021/04/27 05:10:42;;;;;;;34.58;18.20;;;;;;;12.66;100.00;97112.00;5061959;28;46111;-79
2021/04/27 05:13:09;;;;;;;43.38;18.98;;;;;;;12.62;100.00;97112.59;5072736;27;45557;-77
2021/04/27 05:15:34;;;;;;;27.05;18.02;;;;;;;12.60;100.00;97106.63;5071555;27;45399;-78
2021/04/27 05:18:00;;;;;;;27.92;18.63;;;;;;;12.72;100.00;97114.91;5057464;28;45319;-77
2021/04/27 05:20:26;;;;;;;78.93;23.27;;;;;;;12.66;100.00;97116.50;5057125;28;45492;-78
2021/04/27 05:22:52;;;;;;;44.67;22.90;;;;;;;12.63;100.00;97107.06;5071023;28;45484;-77
2021/04/27 05:25:18;;;;;;;40.72;22.77;;;;;;;12.68;100.00;97115.28;5069160;28;45401;-78
2021/04/27 05:27:44;;;;;;;34.70;21.45;;;;;;;12.57;100.00;97113.19;5064047;27;45364;-80
2021/04/27 05:30:10;;;;;;;31.27;19.50;;;;;;;12.62;100.00;97117.91;5068964;28;46429;-84
2021/04/27 05:32:36;;;;;;;36.08;21.48;;;;;;;12.70;100.00;97117.75;5068088;28;45365;-80
2021/04/27 05:35:02;;;;;;;30.13;18.35;;;;;;;12.72;100.00;97120.25;5067041;27;45524;-75
2021/04/27 05:37:28;;;;;;;25.30;17.65;;;;;;;12.69;100.00;97118.78;5063495;28;45493;-74
2021/04/27 05:39:53;;;;;;;27.60;17.10;;;;;;;12.66;100.00;97116.50;5056675;28;47038;-74
2021/04/27 05:42:19;;;;;;;28.60;17.67;;;;;;;12.71;100.00;97124.72;5068241;28;45319;-74
2021/04/27 05:44:44;;;;;;;30.40;19.83;;;;;;;12.77;100.00;97113.28;5056759;28;45394;-75
2021/04/27 05:47:10;;;;;;;30.33;19.48;;;;;;;12.89;100.00;97116.22;5065241;28;45488;-76
2021/04/27 05:49:35;;;;;;;29.00;19.35;;;;;;;12.74;100.00;97124.34;5077081;27;45600;-76
2021/04/27 05:52:01;;;;;;;67.20;44.70;;;;;;;12.75;100.00;97117.19;5076441;27;45436;-77
2021/04/27 05:54:26;;;;;;;72.22;47.28;;;;;;;12.86;99.75;97118.47;5067792;28;45453;-78
2021/04/27 05:56:52;;;;;;;28.13;19.50;;;;;;;12.89;99.56;97121.53;5056680;28;45866;-77
2021/04/27 05:59:17;;;;;;;22.10;14.10;;;;;;;12.83;98.98;97120.50;5071272;28;46127;-76
2021/04/27 06:01:43;;;;;;;18.35;12.90;;;;;;;12.92;100.00;97115.81;5070505;27;45481;-76
2021/04/27 06:04:08;;;;;;;21.15;14.88;;;;;;;12.98;99.67;97114.22;5072948;27;45628;-75
2021/04/27 06:06:35;;;;;;;37.17;23.10;;;;;;;13.01;100.00;97115.63;5068382;28;45494;-76
2021/04/27 06:09:04;;;;;;;25.98;17.38;;;;;;;13.06;98.81;97116.69;5055976;28;45345;-75
2021/04/27 06:11:30;;;;;;;24.63;17.30;;;;;;;13.17;99.61;97123.28;5055484;28;45419;-76
2021/04/27 06:13:55;;;;;;;36.80;21.55;;;;;;;13.14;98.83;97121.84;5070676;28;45400;-76
2021/04/27 06:16:20;;;;;;;26.38;17.23;;;;;;;13.06;99.02;97118.53;5073283;27;45559;-76
2021/04/27 06:18:46;;;;;;;25.55;16.48;;;;;;;13.16;98.71;97120.84;5059357;28;46039;-76
2021/04/27 06:21:12;;;;;;;23.52;16.80;;;;;;;13.17;99.10;97115.28;5067475;28;45392;-76
2021/04/27 06:23:38;;;;;;;20.38;13.63;;;;;;;12.99;97.85;97118.53;5078482;28;45451;-76
2021/04/27 06:26:03;;;;;;;21.35;14.88;;;;;;;13.16;98.48;97115.50;5071856;28;45479;-76
2021/04/27 06:28:29;;;;;;;27.92;18.13;;;;;;;13.14;98.19;97123.69;5061864;28;45410;-76
2021/04/27 06:30:54;;;;;;;37.28;23.67;;;;;;;13.18;98.70;97114.25;5066449;28;45707;-76
2021/04/27 06:33:19;;;;;;;35.75;20.92;;;;;;;13.02;98.49;97114.63;5072968;28;45500;-77
2021/04/27 06:35:45;;;;;;;28.90;20.48;;;;;;;13.01;98.83;97116.47;5070453;27;45341;-77
2021/04/27 06:38:16;;;;;;;35.60;22.63;;;;;;;13.03;98.75;97111.75;5059194;28;46077;-76
2021/04/27 06:40:42;;;;;;;35.13;23.48;;;;;;;12.88;98.64;97108.41;5079560;27;45368;-76
2021/04/27 06:43:07;;;;;;;36.05;25.15;;;;;;;13.06;98.27;97110.53;5079293;27;45689;-76
2021/04/27 06:45:34;;;;;;;33.97;26.00;;;;;;;13.25;98.15;97111.63;5075167;27;45348;-76
2021/04/27 06:47:59;;;;;;;38.15;26.77;;;;;;;13.25;98.23;97111.63;5057513;28;48299;-76
2021/04/27 06:50:25;;;;;;;32.08;23.48;;;;;;;13.19;97.70;97109.75;5077234;28;45340;-76
2021/04/27 06:52:50;;;;;;;32.15;21.80;;;;;;;13.16;96.99;97104.81;5078932;27;45536;-77
2021/04/27 06:55:16;;;;;;;34.90;23.77;;;;;;;13.19;97.76;97112.44;5071536;27;45509;-76
2021/04/27 06:57:41;;;;;;;36.00;23.33;;;;;;;13.28;97.64;97108.56;5058737;28;46491;-77
2021/04/27 07:00:09;;;;;;;33.53;23.17;;;;;;;13.19;98.09;97110.56;5058883;28;45376;-76
2021/04/27 07:02:35;;;;;;;32.33;21.77;;;;;;;12.98;98.82;97108.88;5069087;27;45424;-77
2021/04/27 07:05:00;;;;;;;34.20;22.52;;;;;;;13.13;98.47;97108.69;5062541;28;45283;-76
2021/04/27 07:07:26;;;;;;;34.90;21.08;;;;;;;13.01;98.76;97107.63;5072343;27;46222;-77
2021/04/27 07:09:51;;;;;;;32.42;23.33;;;;;;;12.98;98.81;97112.34;5070465;28;45380;-77
2021/04/27 07:12:16;;;;;;;35.08;24.30;;;;;;;13.12;99.60;97107.06;5060110;28;45383;-77
2021/04/27 07:14:42;;;;;;;31.15;21.65;;;;;;;13.05;98.39;97109.72;5070411;27;45423;-77
2021/04/27 07:17:08;;;;;;;32.72;21.60;;;;;;;12.63;100.00;97107.06;5074500;28;45469;-77
2021/04/27 07:19:34;;;;;;;34.28;23.83;;;;;;;12.79;99.88;97105.91;5058683;28;45333;-77
2021/04/27 07:21:59;;;;;;;35.38;22.83;;;;;;;12.76;99.81;97106.28;5058872;28;45364;-77
2021/04/27 07:24:25;;;;;;;32.47;21.70;;;;;;;12.84;98.85;97102.66;5058665;28;45264;-77
2021/04/27 07:26:50;;;;;;;29.05;20.70;;;;;;;12.77;99.68;97102.59;5058436;28;45896;-77
2021/04/27 07:29:17;;;;;;;30.60;21.67;;;;;;;12.82;99.06;97102.84;5060844;28;45348;-77
2021/04/27 07:31:43;;;;;;;32.08;21.48;;;;;;;12.89;99.58;97099.41;5059096;28;45564;-77
2021/04/27 07:34:09;;;;;;;28.45;19.98;;;;;;;12.87;99.17;97104.91;5066682;28;45440;-77
2021/04/27 07:36:35;;;;;;;22.58;17.77;;;;;;;12.90;99.08;97101.03;5077895;27;46158;-78
2021/04/27 07:39:02;;;;;;;26.58;19.88;;;;;;;13.13;97.97;97100.69;5068039;27;45453;-77
2021/04/27 07:41:27;;;;;;;24.80;18.25;;;;;;;13.20;98.13;97106.88;5076754;27;45272;-78
2021/04/27 07:43:53;;;;;;;24.40;17.80;;;;;;;13.26;97.08;97100.75;5066799;28;45272;-78
2021/04/27 07:46:18;;;;;;;27.50;18.95;;;;;;;13.43;96.01;97101.22;5072788;28;45398;-80
2021/04/27 07:48:44;;;;;;;25.08;17.92;;;;;;;13.48;96.07;97105.13;5061979;27;45320;-81
2021/04/27 07:51:10;;;;;;;28.05;17.83;;;;;;;13.39;95.15;97107.16;5064868;28;45441;-83
2021/04/27 07:53:36;;;;;;;22.85;17.05;;;;;;;13.73;94.06;97099.22;5062036;27;45715;-82
2021/04/27 07:56:02;;;;;;;21.80;16.25;;;;;;;13.89;93.35;97098.81;5063215;28;45426;-80
2021/04/27 07:58:27;;;;;;;21.15;15.85;;;;;;;14.07;93.64;97097.38;5072766;28;45482;-82
2021/04/27 08:00:52;;;;;;;19.83;15.02;;;;;;;14.24;91.90;97097.78;5073701;27;45627;-83
2021/04/27 08:03:18;;;;;;;19.27;15.52;;;;;;;14.33;92.63;97095.69;5068784;27;45660;-90
2021/04/27 08:05:44;;;;;;;19.60;14.93;;;;;;;14.66;91.66;97089.47;5070671;28;45510;-87
2021/04/27 08:08:09;;;;;;;17.45;14.27;;;;;;;14.53;90.59;97091.13;5070860;27;45319;-82
2021/04/27 08:10:35;;;;;;;19.15;13.45;;;;;;;14.58;90.56;97091.34;5059424;28;45321;-84
2021/04/27 08:13:01;;;;;;;17.45;12.75;;;;;;;14.98;89.23;97090.38;5068628;27;45682;-83
2021/04/27 08:15:29;;;;;;;18.15;13.27;;;;;;;15.18;88.67;97084.94;5068496;28;47322;-84
2021/04/27 08:17:59;;;;;;;15.30;11.95;;;;;;;16.01;84.86;97092.28;5071204;28;45366;-88
2021/04/27 08:20:24;;;;;;;13.40;10.50;;;;;;;16.40;81.54;97081.41;5058436;28;45528;-82
2021/04/27 08:22:50;;;;;;;16.98;11.05;;;;;;;18.21;77.82;97078.19;5061084;28;45486;-84
2021/04/27 08:25:18;;;;;;;13.70;9.90;;;;;;;19.75;70.21;97084.19;5070359;27;46169;-82
2021/04/27 08:27:44;;;;;;;12.05;10.23;;;;;;;19.92;68.79;97084.25;5061750;28;45304;-80
2021/04/27 08:30:11;;;;;;;13.40;9.07;;;;;;;19.94;66.18;97074.03;5059199;28;45480;-81
2021/04/27 08:32:37;;;;;;;11.45;8.45;;;;;;;19.88;65.51;97081.19;5057139;28;45578;-82
2021/04/27 08:35:04;;;;;;;12.63;8.60;;;;;;;20.66;60.96;97079.66;5061241;27;45951;-81
2021/04/27 08:37:31;;;;;;;9.13;8.05;;;;;;;21.47;59.58;97077.38;5058051;28;45568;-80
2021/04/27 08:39:56;;;;;;;10.60;7.55;;;;;;;21.57;55.87;97066.66;5061105;27;45424;-82
2021/04/27 08:42:23;;;;;;;9.07;8.02;;;;;;;21.87;55.58;97070.72;5081262;27;45617;-80
2021/04/27 08:44:48;;;;;;;12.20;8.32;;;;;;;22.71;55.31;97067.50;5067572;27;47264;-81
2021/04/27 08:47:13;;;;;;;10.52;7.93;;;;;;;22.57;54.80;97072.59;5072897;28;45315;-80
2021/04/27 08:49:39;;;;;;;10.02;7.63;;;;;;;23.77;48.82;97061.06;5060941;28;45494;-82
2021/04/27 08:52:05;;;;;;;9.48;7.30;;;;;;;22.86;53.53;97059.44;5057213;28;45610;-86
2021/04/27 08:54:32;;;;;;;9.77;6.45;;;;;;;23.76;47.59;97057.50;5057632;28;45332;-84
2021/04/27 08:56:57;;;;;;;11.80;8.38;;;;;;;24.07;43.65;97058.63;5063413;27;45521;-81
2021/04/27 08:59:23;;;;;;;9.80;8.30;;;;;;;24.43;42.36;97062.13;5057563;28;45485;-80
2021/04/27 09:01:49;;;;;;;10.27;8.38;;;;;;;24.59;42.74;97059.34;5079796;27;45441;-81
2021/04/27 09:04:41;;;;;;;13.35;8.70;;;;;;;25.32;41.32;97049.81;5081110;27;45472;-83
2021/04/27 09:07:14;;;;;;;10.52;7.03;;;;;;;25.24;37.35;97052.31;5057667;28;45408;-79
2021/04/27 09:09:40;;;;;;;10.98;7.40;;;;;;;24.30;41.37;97057.22;5057762;28;45325;-78
2021/04/27 09:12:07;;;;;;;8.85;6.68;;;;;;;23.57;45.39;97057.25;5068641;28;45627;-78
2021/04/27 09:14:35;;;;;;;15.57;6.90;;;;;;;22.68;46.04;97054.50;5061537;27;45569;-78
2021/04/27 09:17:03;;;;;;;9.88;6.88;;;;;;;21.52;46.92;97053.09;5065389;27;45367;-78
2021/04/27 09:19:30;;;;;;;8.82;7.10;;;;;;;20.85;50.73;97061.31;5070535;28;45205;-80
2021/04/27 09:22:06;;;;;;;10.23;6.93;;;;;;;20.03;50.27;97058.25;5061160;27;45220;-81
2021/04/27 09:24:53;;;;;;;10.25;6.90;;;;;;;19.91;51.59;97059.16;5080949;27;45456;-80
2021/04/27 09:27:38;;;;;;;9.18;7.45;;;;;;;19.76;54.25;97065.06;5062439;27;45478;-83
2021/04/27 09:30:27;;;;;;;9.48;6.80;;;;;;;19.90;55.72;97056.72;5059946;28;45542;-80
2021/04/27 09:33:05;;;;;;;10.25;7.20;;;;;;;20.70;52.56;97057.28;5068851;27;45337;-80
2021/04/27 09:35:39;;;;;;;12.48;7.30;;;;;;;21.00;53.23;97049.84;5059550;27;45233;-80
2021/04/27 09:38:15;;;;;;;9.90;6.72;;;;;;;20.85;44.00;97045.91;5058759;28;45341;-80
2021/04/27 09:40:48;;;;;;;10.18;7.13;;;;;;;20.97;45.20;97048.47;5073692;28;45426;-84
2021/04/27 09:43:15;;;;;;;12.82;6.88;;;;;;;21.03;50.23;97046.63;5056824;28;46168;-85
2021/04/27 09:45:45;;;;;;;9.98;6.70;;;;;;;20.17;51.74;97040.63;5056173;28;45996;-86
2021/04/27 09:48:11;;;;;;;11.77;7.32;;;;;;;19.91;57.97;97037.56;5056271;28;45351;-84
2021/04/27 09:50:38;;;;;;;11.63;7.20;;;;;;;19.96;53.54;97034.94;5069022;28;45479;-87
2021/04/27 09:53:04;;;;;;;11.55;7.32;;;;;;;19.73;52.94;97041.28;5058682;28;45331;-85
2021/04/27 09:55:31;;;;;;;10.20;7.28;;;;;;;19.81;50.51;97032.78;5066037;28;45586;-84
2021/04/27 09:57:58;;;;;;;10.27;6.68;;;;;;;20.01;50.80;97030.69;5066442;27;45750;-85
2021/04/27 10:00:38;;;;;;;13.63;7.45;;;;;;;20.16;53.60;97032.81;5070831;27;45327;-88
2021/04/27 10:03:06;;;;;;;8.63;7.10;;;;;;;20.39;54.46;97032.59;5079888;27;45147;-83
2021/04/27 10:05:33;;;;;;;8.10;7.30;;;;;;;19.82;49.15;97033.63;5075191;27;46430;-85
2021/04/27 10:08:00;;;;;;;9.60;7.50;;;;;;;20.21;52.75;97019.38;5058857;27;45451;-87
2021/04/27 10:10:34;;;;;;;9.50;7.97;;;;;;;20.35;56.20;97036.06;5058274;28;45367;-89
2021/04/27 10:13:01;;;;;;;11.60;7.88;;;;;;;20.49;53.51;97028.38;5060265;28;45237;-85
2021/04/27 10:15:28;;;;;;;10.32;7.43;;;;;;;20.40;52.38;97028.81;5066210;27;45361;-90
2021/04/27 10:17:53;;;;;;;10.18;7.25;;;;;;;20.24;51.88;97018.88;5056957;28;45329;-83
2021/04/27 10:20:19;;;;;;;12.25;7.72;;;;;;;20.25;51.49;97023.22;5056922;28;45353;-84
2021/04/27 10:22:47;;;;;;;9.35;7.45;;;;;;;20.00;52.32;97023.66;5072346;28;45554;-83
2021/04/27 10:25:23;;;;;;;10.48;7.53;;;;;;;20.25;52.91;97020.53;5057875;28;45471;-88
2021/04/27 10:27:57;;;;;;;9.77;6.78;;;;;;;20.38;52.07;97017.47;5066708;28;45515;-81
2021/04/27 10:30:23;;;;;;;10.48;6.38;;;;;;;20.30;53.03;97022.47;5072708;27;45435;-85
2021/04/27 10:33:00;;;;;;;10.88;6.80;;;;;;;20.39;52.84;97019.09;5056357;28;45682;-81
2021/04/27 10:35:27;;;;;;;9.40;6.72;;;;;;;20.24;50.29;97014.28;5063408;27;45417;-81
2021/04/27 10:38:12;;;;;;;10.23;7.32;;;;;;;20.27;54.88;97011.09;5072104;27;45429;-85
2021/04/27 10:40:52;;;;;;;10.77;6.70;;;;;;;20.68;52.39;97013.50;5066953;27;45420;-84
2021/04/27 10:43:27;;;;;;;9.68;6.50;;;;;;;20.55;56.20;97022.81;5057198;28;45431;-82
2021/04/27 10:45:56;;;;;;;9.32;6.57;;;;;;;20.47;53.86;97017.84;5055823;28;45242;-81
2021/04/27 10:48:42;;;;;;;10.63;6.68;;;;;;;20.55;53.54;97013.88;5060699;28;45357;-86
2021/04/27 10:51:23;;;;;;;9.15;6.55;;;;;;;20.00;54.06;97016.41;5069910;28;45204;-84
2021/04/27 10:54:04;;;;;;;10.65;7.50;;;;;;;19.97;55.22;97016.91;5056225;28;45471;-85
2021/04/27 10:56:53;;;;;;;9.43;7.55;;;;;;;20.19;55.24;97013.41;5065913;28;45558;-87
2021/04/27 10:59:20;;;;;;;10.05;8.10;;;;;;;20.03;55.60;97009.69;5061617;27;45734;-86
2021/04/27 11:01:47;;;;;;;11.38;8.23;;;;;;;20.01;55.97;97015.34;5074998;27;45438;-84
2021/04/27 11:04:34;;;;;;;11.45;8.45;;;;;;;20.00;56.21;97012.88;5075640;27;45668;-82
2021/04/27 11:07:11;;;;;;;10.50;8.50;;;;;;;20.07;56.98;97013.50;5073706;27;47204;-83
2021/04/27 11:09:38;;;;;;;11.45;7.97;;;;;;;19.84;54.43;97009.91;5076053;28;45220;-83
2021/04/27 11:12:28;;;;;;;11.85;9.10;;;;;;;19.89;55.78;97006.50;5063872;28;45376;-83
2021/04/27 11:15:25;;;;;;;10.88;7.43;;;;;;;19.71;55.36;97011.06;5064420;27;45920;-81
2021/04/27 11:18:06;;;;;;;13.30;8.93;;;;;;;19.97;55.59;97012.31;5067001;28;45583;-82
2021/04/27 11:20:43;;;;;;;12.10;9.30;;;;;;;20.03;56.05;97004.28;5069721;28;45428;-83
2021/04/27 11:23:28;;;;;;;10.77;8.88;;;;;;;19.90;54.40;97008.16;5064580;27;45459;-82
2021/04/27 11:25:54;;;;;;;11.93;8.32;;;;;;;19.74;57.68;97007.88;5059127;28;45285;-83